sensor_id;sensor_type;location;lat;lon;timestamp;P1;durP1;ratioP1;P2;durP2;ratioP2
8572;SDS011;4324;42.012;24.872;2024-01-27T00:01:14;2.93;;;1.53;;
8572;SDS011;4324;42.012;24.872;2024-01-27T00:03:41;4.13;;;2.37;;
8572;SDS011;4324;42.012;24.872;2024-01-27T00:06:09;4.27;;;2.20;;
8572;SDS011;4324;42.012;24.872;2024-01-27T00:08:36;3.07;;;1.80;;
8572;SDS011;4324;42.012;24.872;2024-01-27T00:11:03;2.10;;;1.90;;
8572;SDS011;4324;42.012;24.872;2024-01-27T00:13:30;3.07;;;1.60;;
8572;SDS011;4324;42.012;24.872;2024-01-27T00:15:57;2.30;;;1.90;;
8572;SDS011;4324;42.012;24.872;2024-01-27T00:18:24;2.90;;;2.03;;
8572;SDS011;4324;42.012;24.872;2024-01-27T00:20:51;2.27;;;1.70;;
8572;SDS011;4324;42.012;24.872;2024-01-27T00:23:19;2.23;;;1.83;;
8572;SDS011;4324;42.012;24.872;2024-01-27T00:25:46;3.10;;;1.80;;
8572;SDS011;4324;42.012;24.872;2024-01-27T00:28:13;2.57;;;1.87;;
8572;SDS011;4324;42.012;24.872;2024-01-27T00:30:40;3.23;;;1.70;;
8572;SDS011;4324;42.012;24.872;2024-01-27T00:33:07;2.13;;;1.50;;
8572;SDS011;4324;42.012;24.872;2024-01-27T00:35:33;2.50;;;1.80;;
8572;SDS011;4324;42.012;24.872;2024-01-27T00:38:00;2.47;;;1.73;;
8572;SDS011;4324;42.012;24.872;2024-01-27T00:40:29;3.40;;;1.80;;
8572;SDS011;4324;42.012;24.872;2024-01-27T00:42:56;2.40;;;1.47;;
8572;SDS011;4324;42.012;24.872;2024-01-27T00:45:23;4.30;;;1.80;;
8572;SDS011;4324;42.012;24.872;2024-01-27T00:47:49;3.87;;;1.80;;
8572;SDS011;4324;42.012;24.872;2024-01-27T00:50:16;2.40;;;1.77;;
8572;SDS011;4324;42.012;24.872;2024-01-27T00:52:43;3.60;;;1.80;;
8572;SDS011;4324;42.012;24.872;2024-01-27T00:55:10;1.90;;;1.40;;
8572;SDS011;4324;42.012;24.872;2024-01-27T00:57:39;1.77;;;1.63;;
8572;SDS011;4324;42.012;24.872;2024-01-27T01:00:06;3.67;;;1.70;;
8572;SDS011;4324;42.012;24.872;2024-01-27T01:02:34;2.10;;;1.80;;
8572;SDS011;4324;42.012;24.872;2024-01-27T01:05:04;2.33;;;1.80;;
8572;SDS011;4324;42.012;24.872;2024-01-27T01:07:31;2.80;;;1.60;;
8572;SDS011;4324;42.012;24.872;2024-01-27T01:09:58;2.67;;;1.60;;
8572;SDS011;4324;42.012;24.872;2024-01-27T01:12:25;1.73;;;1.60;;
8572;SDS011;4324;42.012;24.872;2024-01-27T01:14:53;3.90;;;1.70;;
8572;SDS011;4324;42.012;24.872;2024-01-27T01:17:21;2.10;;;1.70;;
8572;SDS011;4324;42.012;24.872;2024-01-27T01:19:48;3.50;;;2.00;;
8572;SDS011;4324;42.012;24.872;2024-01-27T01:22:15;2.93;;;1.70;;
8572;SDS011;4324;42.012;24.872;2024-01-27T01:24:42;2.40;;;1.87;;
8572;SDS011;4324;42.012;24.872;2024-01-27T01:27:09;2.93;;;1.60;;
8572;SDS011;4324;42.012;24.872;2024-01-27T01:29:36;2.77;;;1.60;;
8572;SDS011;4324;42.012;24.872;2024-01-27T01:32:05;2.50;;;1.53;;
8572;SDS011;4324;42.012;24.872;2024-01-27T01:34:32;1.50;;;1.20;;
8572;SDS011;4324;42.012;24.872;2024-01-27T01:36:59;2.90;;;1.70;;
8572;SDS011;4324;42.012;24.872;2024-01-27T01:39:27;3.13;;;1.60;;
8572;SDS011;4324;42.012;24.872;2024-01-27T01:41:54;2.83;;;1.57;;
8572;SDS011;4324;42.012;24.872;2024-01-27T01:44:21;3.93;;;1.90;;
8572;SDS011;4324;42.012;24.872;2024-01-27T01:46:48;2.33;;;1.73;;
8572;SDS011;4324;42.012;24.872;2024-01-27T01:49:17;2.90;;;1.77;;
8572;SDS011;4324;42.012;24.872;2024-01-27T01:51:43;2.20;;;1.73;;
8572;SDS011;4324;42.012;24.872;2024-01-27T01:54:10;3.77;;;1.60;;
8572;SDS011;4324;42.012;24.872;2024-01-27T01:56:41;7.40;;;1.83;;
8572;SDS011;4324;42.012;24.872;2024-01-27T01:59:09;4.33;;;1.80;;
8572;SDS011;4324;42.012;24.872;2024-01-27T02:01:35;1.77;;;1.60;;
8572;SDS011;4324;42.012;24.872;2024-01-27T02:04:04;2.50;;;1.33;;
8572;SDS011;4324;42.012;24.872;2024-01-27T02:06:33;2.97;;;1.80;;
8572;SDS011;4324;42.012;24.872;2024-01-27T02:09:00;2.73;;;1.87;;
8572;SDS011;4324;42.012;24.872;2024-01-27T02:11:27;3.73;;;2.23;;
8572;SDS011;4324;42.012;24.872;2024-01-27T02:13:54;5.30;;;2.50;;
8572;SDS011;4324;42.012;24.872;2024-01-27T02:16:20;3.87;;;2.17;;
8572;SDS011;4324;42.012;24.872;2024-01-27T02:18:47;5.13;;;2.60;;
8572;SDS011;4324;42.012;24.872;2024-01-27T02:21:14;5.13;;;1.73;;
8572;SDS011;4324;42.012;24.872;2024-01-27T02:23:43;3.10;;;1.60;;
8572;SDS011;4324;42.012;24.872;2024-01-27T02:26:11;1.67;;;1.57;;
8572;SDS011;4324;42.012;24.872;2024-01-27T02:28:38;5.70;;;1.60;;
8572;SDS011;4324;42.012;24.872;2024-01-27T02:31:05;2.30;;;1.70;;
8572;SDS011;4324;42.012;24.872;2024-01-27T02:33:32;5.33;;;2.37;;
8572;SDS011;4324;42.012;24.872;2024-01-27T02:35:58;1.73;;;1.60;;
8572;SDS011;4324;42.012;24.872;2024-01-27T02:38:25;3.23;;;1.70;;
8572;SDS011;4324;42.012;24.872;2024-01-27T02:40:52;3.10;;;1.47;;
8572;SDS011;4324;42.012;24.872;2024-01-27T02:43:20;2.63;;;1.70;;
8572;SDS011;4324;42.012;24.872;2024-01-27T02:45:47;2.50;;;1.80;;
8572;SDS011;4324;42.012;24.872;2024-01-27T02:48:14;8.17;;;2.13;;
8572;SDS011;4324;42.012;24.872;2024-01-27T02:50:41;6.17;;;2.30;;
8572;SDS011;4324;42.012;24.872;2024-01-27T02:53:08;3.53;;;1.70;;
8572;SDS011;4324;42.012;24.872;2024-01-27T02:55:35;3.57;;;1.70;;
8572;SDS011;4324;42.012;24.872;2024-01-27T02:58:02;2.30;;;1.50;;
8572;SDS011;4324;42.012;24.872;2024-01-27T03:00:30;2.80;;;1.50;;
8572;SDS011;4324;42.012;24.872;2024-01-27T03:02:57;4.57;;;1.50;;
8572;SDS011;4324;42.012;24.872;2024-01-27T03:05:24;2.50;;;1.60;;
8572;SDS011;4324;42.012;24.872;2024-01-27T03:07:51;3.90;;;1.90;;
8572;SDS011;4324;42.012;24.872;2024-01-27T03:10:18;3.57;;;1.60;;
8572;SDS011;4324;42.012;24.872;2024-01-27T03:12:45;3.10;;;1.83;;
8572;SDS011;4324;42.012;24.872;2024-01-27T03:15:12;1.77;;;1.47;;
8572;SDS011;4324;42.012;24.872;2024-01-27T03:17:40;2.20;;;1.60;;
8572;SDS011;4324;42.012;24.872;2024-01-27T03:20:07;3.57;;;1.50;;
8572;SDS011;4324;42.012;24.872;2024-01-27T03:22:35;1.87;;;1.57;;
8572;SDS011;4324;42.012;24.872;2024-01-27T03:25:02;1.80;;;1.60;;
8572;SDS011;4324;42.012;24.872;2024-01-27T03:27:29;2.97;;;1.67;;
8572;SDS011;4324;42.012;24.872;2024-01-27T03:29:58;2.10;;;1.90;;
8572;SDS011;4324;42.012;24.872;2024-01-27T03:32:27;2.97;;;1.57;;
8572;SDS011;4324;42.012;24.872;2024-01-27T03:34:55;2.30;;;1.87;;
8572;SDS011;4324;42.012;24.872;2024-01-27T03:37:22;2.03;;;1.37;;
8572;SDS011;4324;42.012;24.872;2024-01-27T03:39:49;3.37;;;2.17;;
8572;SDS011;4324;42.012;24.872;2024-01-27T03:42:16;5.30;;;2.50;;
8572;SDS011;4324;42.012;24.872;2024-01-27T03:44:42;2.83;;;1.83;;
8572;SDS011;4324;42.012;24.872;2024-01-27T03:47:09;4.77;;;2.00;;
8572;SDS011;4324;42.012;24.872;2024-01-27T03:49:36;2.63;;;1.60;;
8572;SDS011;4324;42.012;24.872;2024-01-27T03:52:05;3.17;;;1.90;;
8572;SDS011;4324;42.012;24.872;2024-01-27T03:54:31;2.57;;;1.50;;
8572;SDS011;4324;42.012;24.872;2024-01-27T03:56:59;2.07;;;1.57;;
8572;SDS011;4324;42.012;24.872;2024-01-27T03:59:26;2.37;;;1.60;;
8572;SDS011;4324;42.012;24.872;2024-01-27T04:01:53;2.53;;;1.27;;
8572;SDS011;4324;42.012;24.872;2024-01-27T04:04:20;4.37;;;1.67;;
8572;SDS011;4324;42.012;24.872;2024-01-27T04:06:47;2.37;;;1.43;;
8572;SDS011;4324;42.012;24.872;2024-01-27T04:09:15;2.87;;;1.80;;
8572;SDS011;4324;42.012;24.872;2024-01-27T04:11:43;3.27;;;1.70;;
8572;SDS011;4324;42.012;24.872;2024-01-27T04:14:10;1.60;;;1.50;;
8572;SDS011;4324;42.012;24.872;2024-01-27T04:16:37;1.80;;;1.60;;
8572;SDS011;4324;42.012;24.872;2024-01-27T04:19:05;2.30;;;1.37;;
8572;SDS011;4324;42.012;24.872;2024-01-27T04:21:32;2.43;;;1.47;;
8572;SDS011;4324;42.012;24.872;2024-01-27T04:23:59;1.90;;;1.70;;
8572;SDS011;4324;42.012;24.872;2024-01-27T04:26:27;2.17;;;1.40;;
8572;SDS011;4324;42.012;24.872;2024-01-27T04:28:54;2.60;;;1.80;;
8572;SDS011;4324;42.012;24.872;2024-01-27T04:31:21;1.90;;;1.70;;
8572;SDS011;4324;42.012;24.872;2024-01-27T04:33:48;5.90;;;2.83;;
8572;SDS011;4324;42.012;24.872;2024-01-27T04:36:24;4.10;;;2.97;;
8572;SDS011;4324;42.012;24.872;2024-01-27T04:38:51;2.10;;;1.80;;
8572;SDS011;4324;42.012;24.872;2024-01-27T04:41:18;1.90;;;1.43;;
8572;SDS011;4324;42.012;24.872;2024-01-27T04:43:46;2.57;;;1.60;;
8572;SDS011;4324;42.012;24.872;2024-01-27T04:46:13;2.40;;;1.70;;
8572;SDS011;4324;42.012;24.872;2024-01-27T04:48:40;4.70;;;2.53;;
8572;SDS011;4324;42.012;24.872;2024-01-27T04:51:07;2.93;;;1.97;;
8572;SDS011;4324;42.012;24.872;2024-01-27T04:53:34;4.23;;;2.40;;
8572;SDS011;4324;42.012;24.872;2024-01-27T04:56:01;6.17;;;4.33;;
8572;SDS011;4324;42.012;24.872;2024-01-27T04:58:33;3.67;;;2.53;;
8572;SDS011;4324;42.012;24.872;2024-01-27T05:01:01;2.33;;;1.67;;
8572;SDS011;4324;42.012;24.872;2024-01-27T05:03:28;6.30;;;1.90;;
8572;SDS011;4324;42.012;24.872;2024-01-27T05:05:55;3.07;;;1.80;;
8572;SDS011;4324;42.012;24.872;2024-01-27T05:08:22;2.13;;;1.73;;
8572;SDS011;4324;42.012;24.872;2024-01-27T05:10:49;4.00;;;2.90;;
8572;SDS011;4324;42.012;24.872;2024-01-27T05:13:16;4.83;;;3.07;;
8572;SDS011;4324;42.012;24.872;2024-01-27T05:15:43;7.53;;;5.10;;
8572;SDS011;4324;42.012;24.872;2024-01-27T05:18:11;7.77;;;5.30;;
8572;SDS011;4324;42.012;24.872;2024-01-27T05:20:38;7.67;;;4.47;;
8572;SDS011;4324;42.012;24.872;2024-01-27T05:23:05;5.80;;;3.27;;
8572;SDS011;4324;42.012;24.872;2024-01-27T05:25:32;8.40;;;2.33;;
8572;SDS011;4324;42.012;24.872;2024-01-27T05:27:59;4.47;;;2.17;;
8572;SDS011;4324;42.012;24.872;2024-01-27T05:30:25;2.90;;;1.90;;
8572;SDS011;4324;42.012;24.872;2024-01-27T05:32:52;4.10;;;2.13;;
8572;SDS011;4324;42.012;24.872;2024-01-27T05:35:21;2.80;;;1.87;;
8572;SDS011;4324;42.012;24.872;2024-01-27T05:37:49;3.73;;;1.90;;
8572;SDS011;4324;42.012;24.872;2024-01-27T05:40:16;2.80;;;2.00;;
8572;SDS011;4324;42.012;24.872;2024-01-27T05:42:43;3.90;;;2.07;;
8572;SDS011;4324;42.012;24.872;2024-01-27T05:45:10;2.50;;;2.20;;
8572;SDS011;4324;42.012;24.872;2024-01-27T05:47:37;4.07;;;1.60;;
8572;SDS011;4324;42.012;24.872;2024-01-27T05:50:04;4.40;;;2.57;;
8572;SDS011;4324;42.012;24.872;2024-01-27T05:52:34;2.40;;;1.63;;
8572;SDS011;4324;42.012;24.872;2024-01-27T05:55:01;2.73;;;1.90;;
8572;SDS011;4324;42.012;24.872;2024-01-27T05:57:31;2.53;;;1.90;;
8572;SDS011;4324;42.012;24.872;2024-01-27T05:59:58;3.00;;;1.70;;
8572;SDS011;4324;42.012;24.872;2024-01-27T06:02:25;3.40;;;1.80;;
8572;SDS011;4324;42.012;24.872;2024-01-27T06:04:52;2.80;;;1.70;;
8572;SDS011;4324;42.012;24.872;2024-01-27T06:07:19;3.17;;;2.47;;
8572;SDS011;4324;42.012;24.872;2024-01-27T06:09:47;2.90;;;2.20;;
8572;SDS011;4324;42.012;24.872;2024-01-27T06:12:14;4.70;;;2.20;;
8572;SDS011;4324;42.012;24.872;2024-01-27T06:14:41;3.87;;;2.03;;
8572;SDS011;4324;42.012;24.872;2024-01-27T06:17:08;4.63;;;2.07;;
8572;SDS011;4324;42.012;24.872;2024-01-27T06:19:35;7.20;;;2.27;;
8572;SDS011;4324;42.012;24.872;2024-01-27T06:22:02;6.83;;;2.27;;
8572;SDS011;4324;42.012;24.872;2024-01-27T06:24:29;3.63;;;1.70;;
8572;SDS011;4324;42.012;24.872;2024-01-27T06:26:58;4.00;;;2.10;;
8572;SDS011;4324;42.012;24.872;2024-01-27T06:29:25;4.73;;;2.10;;
8572;SDS011;4324;42.012;24.872;2024-01-27T06:31:52;2.83;;;1.77;;
8572;SDS011;4324;42.012;24.872;2024-01-27T06:34:19;3.17;;;1.40;;
8572;SDS011;4324;42.012;24.872;2024-01-27T06:36:46;3.13;;;1.97;;
8572;SDS011;4324;42.012;24.872;2024-01-27T06:39:13;3.57;;;2.37;;
8572;SDS011;4324;42.012;24.872;2024-01-27T06:41:40;2.30;;;1.80;;
8572;SDS011;4324;42.012;24.872;2024-01-27T06:44:08;7.60;;;3.93;;
8572;SDS011;4324;42.012;24.872;2024-01-27T06:46:35;5.07;;;3.53;;
8572;SDS011;4324;42.012;24.872;2024-01-27T06:49:02;12.00;;;7.47;;
8572;SDS011;4324;42.012;24.872;2024-01-27T06:51:29;8.57;;;5.20;;
8572;SDS011;4324;42.012;24.872;2024-01-27T06:53:56;4.27;;;3.10;;
8572;SDS011;4324;42.012;24.872;2024-01-27T06:56:24;2.60;;;2.40;;
8572;SDS011;4324;42.012;24.872;2024-01-27T06:58:50;4.23;;;3.43;;
8572;SDS011;4324;42.012;24.872;2024-01-27T07:01:19;6.90;;;3.33;;
8572;SDS011;4324;42.012;24.872;2024-01-27T07:03:46;5.53;;;3.30;;
8572;SDS011;4324;42.012;24.872;2024-01-27T07:06:13;4.30;;;3.50;;
8572;SDS011;4324;42.012;24.872;2024-01-27T07:08:40;4.33;;;3.20;;
8572;SDS011;4324;42.012;24.872;2024-01-27T07:11:07;4.47;;;3.37;;
8572;SDS011;4324;42.012;24.872;2024-01-27T07:13:34;4.13;;;2.60;;
8572;SDS011;4324;42.012;24.872;2024-01-27T07:16:00;4.93;;;2.50;;
8572;SDS011;4324;42.012;24.872;2024-01-27T07:18:29;4.50;;;2.90;;
8572;SDS011;4324;42.012;24.872;2024-01-27T07:20:56;3.93;;;2.17;;
8572;SDS011;4324;42.012;24.872;2024-01-27T07:23:24;4.70;;;2.67;;
8572;SDS011;4324;42.012;24.872;2024-01-27T07:25:51;5.43;;;3.27;;
8572;SDS011;4324;42.012;24.872;2024-01-27T07:28:18;7.57;;;5.53;;
8572;SDS011;4324;42.012;24.872;2024-01-27T07:30:45;13.47;;;9.40;;
8572;SDS011;4324;42.012;24.872;2024-01-27T07:33:12;13.53;;;8.60;;
8572;SDS011;4324;42.012;24.872;2024-01-27T07:35:41;16.50;;;10.00;;
8572;SDS011;4324;42.012;24.872;2024-01-27T07:38:08;15.47;;;10.07;;
8572;SDS011;4324;42.012;24.872;2024-01-27T07:40:34;13.03;;;7.57;;
8572;SDS011;4324;42.012;24.872;2024-01-27T07:43:01;11.13;;;8.10;;
8572;SDS011;4324;42.012;24.872;2024-01-27T07:45:28;7.00;;;4.97;;
8572;SDS011;4324;42.012;24.872;2024-01-27T07:47:55;7.13;;;5.00;;
8572;SDS011;4324;42.012;24.872;2024-01-27T07:50:22;5.83;;;3.57;;
8572;SDS011;4324;42.012;24.872;2024-01-27T07:52:50;8.03;;;5.03;;
8572;SDS011;4324;42.012;24.872;2024-01-27T07:55:17;7.27;;;4.57;;
8572;SDS011;4324;42.012;24.872;2024-01-27T07:57:44;5.30;;;3.13;;
8572;SDS011;4324;42.012;24.872;2024-01-27T08:00:11;6.97;;;3.27;;
8572;SDS011;4324;42.012;24.872;2024-01-27T08:02:39;6.23;;;3.60;;
8572;SDS011;4324;42.012;24.872;2024-01-27T08:05:05;5.80;;;3.63;;
8572;SDS011;4324;42.012;24.872;2024-01-27T08:07:34;11.20;;;7.93;;
8572;SDS011;4324;42.012;24.872;2024-01-27T08:10:02;10.80;;;6.27;;
8572;SDS011;4324;42.012;24.872;2024-01-27T08:12:30;7.37;;;5.97;;
8572;SDS011;4324;42.012;24.872;2024-01-27T08:14:56;8.70;;;6.70;;
8572;SDS011;4324;42.012;24.872;2024-01-27T08:17:23;9.73;;;7.10;;
8572;SDS011;4324;42.012;24.872;2024-01-27T08:19:50;10.43;;;6.70;;
8572;SDS011;4324;42.012;24.872;2024-01-27T08:22:17;7.27;;;6.37;;
8572;SDS011;4324;42.012;24.872;2024-01-27T08:24:44;9.67;;;6.60;;
8572;SDS011;4324;42.012;24.872;2024-01-27T08:27:12;4.80;;;3.50;;
8572;SDS011;4324;42.012;24.872;2024-01-27T08:29:39;3.00;;;2.70;;
8572;SDS011;4324;42.012;24.872;2024-01-27T08:32:06;3.80;;;3.20;;
8572;SDS011;4324;42.012;24.872;2024-01-27T08:34:34;5.10;;;3.33;;
8572;SDS011;4324;42.012;24.872;2024-01-27T08:37:01;3.47;;;3.17;;
8572;SDS011;4324;42.012;24.872;2024-01-27T08:39:28;3.43;;;2.53;;
8572;SDS011;4324;42.012;24.872;2024-01-27T08:41:56;3.23;;;2.77;;
8572;SDS011;4324;42.012;24.872;2024-01-27T08:44:24;2.70;;;2.30;;
8572;SDS011;4324;42.012;24.872;2024-01-27T08:46:51;4.73;;;3.63;;
8572;SDS011;4324;42.012;24.872;2024-01-27T08:49:18;3.67;;;2.90;;
8572;SDS011;4324;42.012;24.872;2024-01-27T08:51:45;3.57;;;2.37;;
8572;SDS011;4324;42.012;24.872;2024-01-27T08:54:11;3.13;;;2.00;;
8572;SDS011;4324;42.012;24.872;2024-01-27T08:56:39;3.67;;;2.87;;
8572;SDS011;4324;42.012;24.872;2024-01-27T08:59:06;3.60;;;3.23;;
8572;SDS011;4324;42.012;24.872;2024-01-27T09:01:34;7.90;;;5.83;;
8572;SDS011;4324;42.012;24.872;2024-01-27T09:04:02;7.87;;;4.50;;
8572;SDS011;4324;42.012;24.872;2024-01-27T09:06:29;14.07;;;8.53;;
8572;SDS011;4324;42.012;24.872;2024-01-27T09:08:56;4.27;;;3.67;;
8572;SDS011;4324;42.012;24.872;2024-01-27T09:11:23;5.40;;;4.43;;
8572;SDS011;4324;42.012;24.872;2024-01-27T09:13:52;4.97;;;3.23;;
8572;SDS011;4324;42.012;24.872;2024-01-27T09:16:19;4.93;;;3.57;;
8572;SDS011;4324;42.012;24.872;2024-01-27T09:18:48;2.70;;;2.40;;
8572;SDS011;4324;42.012;24.872;2024-01-27T09:21:15;2.77;;;2.33;;
8572;SDS011;4324;42.012;24.872;2024-01-27T09:23:46;2.37;;;2.17;;
8572;SDS011;4324;42.012;24.872;2024-01-27T09:26:13;2.37;;;2.00;;
8572;SDS011;4324;42.012;24.872;2024-01-27T09:28:43;3.00;;;2.30;;
8572;SDS011;4324;42.012;24.872;2024-01-27T09:31:12;2.30;;;2.00;;
8572;SDS011;4324;42.012;24.872;2024-01-27T09:33:40;3.77;;;2.80;;
8572;SDS011;4324;42.012;24.872;2024-01-27T09:36:09;4.20;;;3.43;;
8572;SDS011;4324;42.012;24.872;2024-01-27T09:38:36;3.03;;;2.73;;
8572;SDS011;4324;42.012;24.872;2024-01-27T09:41:03;3.53;;;2.63;;
8572;SDS011;4324;42.012;24.872;2024-01-27T09:43:30;3.83;;;2.80;;
8572;SDS011;4324;42.012;24.872;2024-01-27T09:45:58;4.50;;;2.90;;
8572;SDS011;4324;42.012;24.872;2024-01-27T09:48:25;3.10;;;2.30;;
8572;SDS011;4324;42.012;24.872;2024-01-27T09:50:52;4.23;;;2.90;;
8572;SDS011;4324;42.012;24.872;2024-01-27T09:53:21;2.33;;;2.00;;
8572;SDS011;4324;42.012;24.872;2024-01-27T09:55:48;3.13;;;2.60;;
8572;SDS011;4324;42.012;24.872;2024-01-27T09:58:15;3.70;;;2.97;;
8572;SDS011;4324;42.012;24.872;2024-01-27T10:00:43;4.93;;;3.60;;
8572;SDS011;4324;42.012;24.872;2024-01-27T10:03:10;4.70;;;3.03;;
8572;SDS011;4324;42.012;24.872;2024-01-27T10:05:37;3.03;;;2.17;;
8572;SDS011;4324;42.012;24.872;2024-01-27T10:08:07;3.23;;;2.83;;
8572;SDS011;4324;42.012;24.872;2024-01-27T10:10:36;3.20;;;2.40;;
8572;SDS011;4324;42.012;24.872;2024-01-27T10:13:04;3.60;;;3.00;;
8572;SDS011;4324;42.012;24.872;2024-01-27T10:15:31;4.67;;;3.10;;
8572;SDS011;4324;42.012;24.872;2024-01-27T10:18:04;3.00;;;2.10;;
8572;SDS011;4324;42.012;24.872;2024-01-27T10:20:32;3.20;;;2.10;;
8572;SDS011;4324;42.012;24.872;2024-01-27T10:22:59;3.90;;;2.60;;
8572;SDS011;4324;42.012;24.872;2024-01-27T10:25:38;4.33;;;2.87;;
8572;SDS011;4324;42.012;24.872;2024-01-27T10:28:05;3.10;;;2.30;;
8572;SDS011;4324;42.012;24.872;2024-01-27T10:30:33;6.27;;;2.63;;
8572;SDS011;4324;42.012;24.872;2024-01-27T10:33:01;4.40;;;2.50;;
8572;SDS011;4324;42.012;24.872;2024-01-27T10:35:28;2.87;;;2.50;;
8572;SDS011;4324;42.012;24.872;2024-01-27T10:37:55;6.73;;;3.10;;
8572;SDS011;4324;42.012;24.872;2024-01-27T10:40:23;3.83;;;2.43;;
8572;SDS011;4324;42.012;24.872;2024-01-27T10:42:55;2.50;;;2.27;;
8572;SDS011;4324;42.012;24.872;2024-01-27T10:45:30;18.07;;;7.03;;
8572;SDS011;4324;42.012;24.872;2024-01-27T10:48:02;2.53;;;2.33;;
8572;SDS011;4324;42.012;24.872;2024-01-27T10:50:31;6.60;;;3.07;;
8572;SDS011;4324;42.012;24.872;2024-01-27T10:53:01;10.53;;;3.40;;
8572;SDS011;4324;42.012;24.872;2024-01-27T10:55:30;5.63;;;3.80;;
8572;SDS011;4324;42.012;24.872;2024-01-27T10:58:01;6.67;;;2.83;;
8572;SDS011;4324;42.012;24.872;2024-01-27T11:00:29;3.00;;;2.30;;
8572;SDS011;4324;42.012;24.872;2024-01-27T11:02:58;4.63;;;2.50;;
8572;SDS011;4324;42.012;24.872;2024-01-27T11:05:26;3.47;;;2.53;;
8572;SDS011;4324;42.012;24.872;2024-01-27T11:07:55;3.83;;;2.27;;
8572;SDS011;4324;42.012;24.872;2024-01-27T11:10:22;4.83;;;2.70;;
8572;SDS011;4324;42.012;24.872;2024-01-27T11:12:50;5.60;;;3.17;;
8572;SDS011;4324;42.012;24.872;2024-01-27T11:15:21;4.03;;;2.47;;
8572;SDS011;4324;42.012;24.872;2024-01-27T11:17:48;4.93;;;2.80;;
8572;SDS011;4324;42.012;24.872;2024-01-27T11:20:15;4.73;;;2.20;;
8572;SDS011;4324;42.012;24.872;2024-01-27T11:22:42;7.20;;;3.40;;
8572;SDS011;4324;42.012;24.872;2024-01-27T11:25:14;7.20;;;3.77;;
8572;SDS011;4324;42.012;24.872;2024-01-27T11:27:43;4.33;;;2.63;;
8572;SDS011;4324;42.012;24.872;2024-01-27T11:30:26;5.63;;;3.00;;
8572;SDS011;4324;42.012;24.872;2024-01-27T11:33:00;4.93;;;2.83;;
8572;SDS011;4324;42.012;24.872;2024-01-27T11:35:28;3.77;;;2.77;;
8572;SDS011;4324;42.012;24.872;2024-01-27T11:37:55;8.90;;;3.23;;
8572;SDS011;4324;42.012;24.872;2024-01-27T11:40:22;4.87;;;2.97;;
8572;SDS011;4324;42.012;24.872;2024-01-27T11:42:58;3.00;;;2.03;;
8572;SDS011;4324;42.012;24.872;2024-01-27T11:45:27;4.83;;;2.83;;
8572;SDS011;4324;42.012;24.872;2024-01-27T11:47:55;5.50;;;3.10;;
8572;SDS011;4324;42.012;24.872;2024-01-27T11:50:22;3.90;;;2.80;;
8572;SDS011;4324;42.012;24.872;2024-01-27T11:52:49;5.30;;;3.07;;
8572;SDS011;4324;42.012;24.872;2024-01-27T11:55:16;3.50;;;3.03;;
8572;SDS011;4324;42.012;24.872;2024-01-27T11:57:44;4.23;;;2.47;;
8572;SDS011;4324;42.012;24.872;2024-01-27T12:00:11;3.10;;;2.80;;
8572;SDS011;4324;42.012;24.872;2024-01-27T12:02:41;2.80;;;2.37;;
8572;SDS011;4324;42.012;24.872;2024-01-27T12:05:08;2.80;;;2.60;;
8572;SDS011;4324;42.012;24.872;2024-01-27T12:07:35;4.47;;;3.00;;
8572;SDS011;4324;42.012;24.872;2024-01-27T12:10:02;3.17;;;2.67;;
8572;SDS011;4324;42.012;24.872;2024-01-27T12:12:29;5.13;;;3.40;;
8572;SDS011;4324;42.012;24.872;2024-01-27T12:14:56;4.90;;;2.87;;
8572;SDS011;4324;42.012;24.872;2024-01-27T12:17:25;2.40;;;2.20;;
8572;SDS011;4324;42.012;24.872;2024-01-27T12:19:53;3.90;;;2.63;;
8572;SDS011;4324;42.012;24.872;2024-01-27T12:22:21;3.80;;;2.20;;
8572;SDS011;4324;42.012;24.872;2024-01-27T12:24:51;4.40;;;2.50;;
8572;SDS011;4324;42.012;24.872;2024-01-27T12:27:18;2.77;;;2.17;;
8572;SDS011;4324;42.012;24.872;2024-01-27T12:29:47;3.57;;;2.20;;
8572;SDS011;4324;42.012;24.872;2024-01-27T12:32:14;9.03;;;2.90;;
8572;SDS011;4324;42.012;24.872;2024-01-27T12:34:42;5.07;;;3.60;;
8572;SDS011;4324;42.012;24.872;2024-01-27T12:37:12;4.37;;;2.63;;
8572;SDS011;4324;42.012;24.872;2024-01-27T12:39:42;7.17;;;3.17;;
8572;SDS011;4324;42.012;24.872;2024-01-27T12:42:10;5.43;;;3.10;;
8572;SDS011;4324;42.012;24.872;2024-01-27T12:44:37;3.63;;;3.13;;
8572;SDS011;4324;42.012;24.872;2024-01-27T12:47:04;6.53;;;3.83;;
8572;SDS011;4324;42.012;24.872;2024-01-27T12:49:31;8.23;;;3.70;;
8572;SDS011;4324;42.012;24.872;2024-01-27T12:51:58;4.93;;;4.10;;
8572;SDS011;4324;42.012;24.872;2024-01-27T12:54:26;5.93;;;3.50;;
8572;SDS011;4324;42.012;24.872;2024-01-27T12:56:53;4.00;;;2.87;;
8572;SDS011;4324;42.012;24.872;2024-01-27T12:59:20;5.30;;;3.07;;
8572;SDS011;4324;42.012;24.872;2024-01-27T13:01:48;3.33;;;2.50;;
8572;SDS011;4324;42.012;24.872;2024-01-27T13:04:15;2.57;;;2.37;;
8572;SDS011;4324;42.012;24.872;2024-01-27T13:06:42;3.30;;;2.97;;
8572;SDS011;4324;42.012;24.872;2024-01-27T13:09:10;3.10;;;2.50;;
8572;SDS011;4324;42.012;24.872;2024-01-27T13:11:39;3.57;;;2.63;;
8572;SDS011;4324;42.012;24.872;2024-01-27T13:14:06;3.73;;;3.40;;
8572;SDS011;4324;42.012;24.872;2024-01-27T13:16:34;4.37;;;2.50;;
8572;SDS011;4324;42.012;24.872;2024-01-27T13:19:01;6.20;;;3.90;;
8572;SDS011;4324;42.012;24.872;2024-01-27T13:21:29;5.13;;;3.57;;
8572;SDS011;4324;42.012;24.872;2024-01-27T13:23:55;4.67;;;3.27;;
8572;SDS011;4324;42.012;24.872;2024-01-27T13:26:22;3.00;;;2.60;;
8572;SDS011;4324;42.012;24.872;2024-01-27T13:28:50;5.93;;;3.40;;
8572;SDS011;4324;42.012;24.872;2024-01-27T13:31:17;4.37;;;3.03;;
8572;SDS011;4324;42.012;24.872;2024-01-27T13:33:45;4.73;;;2.87;;
8572;SDS011;4324;42.012;24.872;2024-01-27T13:36:12;8.10;;;3.60;;
8572;SDS011;4324;42.012;24.872;2024-01-27T13:38:39;4.50;;;3.10;;
8572;SDS011;4324;42.012;24.872;2024-01-27T13:41:06;3.73;;;3.20;;
8572;SDS011;4324;42.012;24.872;2024-01-27T13:43:33;3.20;;;2.90;;
8572;SDS011;4324;42.012;24.872;2024-01-27T13:46:01;5.00;;;3.03;;
8572;SDS011;4324;42.012;24.872;2024-01-27T13:48:28;3.93;;;2.70;;
8572;SDS011;4324;42.012;24.872;2024-01-27T13:50:55;3.53;;;2.40;;
8572;SDS011;4324;42.012;24.872;2024-01-27T13:53:22;4.00;;;2.10;;
8572;SDS011;4324;42.012;24.872;2024-01-27T13:55:49;3.00;;;2.40;;
8572;SDS011;4324;42.012;24.872;2024-01-27T13:58:16;2.53;;;2.33;;
8572;SDS011;4324;42.012;24.872;2024-01-27T14:00:43;8.47;;;4.00;;
8572;SDS011;4324;42.012;24.872;2024-01-27T14:03:12;4.07;;;2.97;;
8572;SDS011;4324;42.012;24.872;2024-01-27T14:05:39;5.47;;;3.13;;
8572;SDS011;4324;42.012;24.872;2024-01-27T14:08:07;4.57;;;2.83;;
8572;SDS011;4324;42.012;24.872;2024-01-27T14:10:35;4.63;;;2.97;;
8572;SDS011;4324;42.012;24.872;2024-01-27T14:13:02;4.00;;;3.07;;
8572;SDS011;4324;42.012;24.872;2024-01-27T14:15:32;3.07;;;2.57;;
8572;SDS011;4324;42.012;24.872;2024-01-27T14:17:59;3.17;;;2.83;;
8572;SDS011;4324;42.012;24.872;2024-01-27T14:20:27;4.30;;;3.90;;
8572;SDS011;4324;42.012;24.872;2024-01-27T14:22:54;14.93;;;7.83;;
8572;SDS011;4324;42.012;24.872;2024-01-27T14:25:24;3.43;;;3.07;;
8572;SDS011;4324;42.012;24.872;2024-01-27T14:27:51;7.10;;;3.40;;
8572;SDS011;4324;42.012;24.872;2024-01-27T14:30:18;6.17;;;3.40;;
8572;SDS011;4324;42.012;24.872;2024-01-27T14:32:45;6.50;;;3.47;;
8572;SDS011;4324;42.012;24.872;2024-01-27T14:35:15;5.50;;;3.00;;
8572;SDS011;4324;42.012;24.872;2024-01-27T14:37:43;4.27;;;2.80;;
8572;SDS011;4324;42.012;24.872;2024-01-27T14:40:11;3.13;;;2.87;;
8572;SDS011;4324;42.012;24.872;2024-01-27T14:42:38;3.17;;;2.87;;
8572;SDS011;4324;42.012;24.872;2024-01-27T14:45:07;2.90;;;2.70;;
8572;SDS011;4324;42.012;24.872;2024-01-27T14:47:35;5.27;;;2.80;;
8572;SDS011;4324;42.012;24.872;2024-01-27T14:50:02;3.50;;;2.50;;
8572;SDS011;4324;42.012;24.872;2024-01-27T14:52:29;5.13;;;3.00;;
8572;SDS011;4324;42.012;24.872;2024-01-27T14:54:58;4.77;;;2.80;;
8572;SDS011;4324;42.012;24.872;2024-01-27T14:57:25;3.13;;;2.57;;
8572;SDS011;4324;42.012;24.872;2024-01-27T14:59:52;4.40;;;2.90;;
8572;SDS011;4324;42.012;24.872;2024-01-27T15:02:19;4.87;;;2.50;;